»·PEaware :: N878FA L88-KSBP

N878FA :: L88-KSBP

FLIGHT INFORMATION

Flight Status: Arrived
Operator: Privately registered:
United States
More flights under this callsign
Pilot: D V. (24879)
Aircraft: PIPER PA-28 CHEROKEE ARCHER
(P28A)
More flights by this aircraft type
Origin: L88 New Cuyama
United States
Destination: KSBP San Luis Co Regl
United States
More flights between these airports :: More routes between these airports
Route:
File this flight plan on PilotEdge
Remarks:
Altitude:
(Current/Filed)
6,500ft
Speed:
(Current/Filed)
102kts
Departed: 01-Aug-20 02:37 PM
Arrived: 01-Aug-20 03:16 PM
Distance/Time
Traveled:
50nm/0:38
Distance/Time
To Go:
Arrived

Flight Plot

Page will automatically refresh every two minutes.


Map Options




Map Legend


Flown Route
Filed Route
Departure Airport
Arrival Airport
Navaid (VOR, NDB)
Fix

Horizontal Profiles

Position Reports

Time Latitude Longitude Heading Altitude Ground
Speed
01-Aug-20 14:02 34.942859 -119.690284 204 2154ft 0kts
01-Aug-20 14:03 34.942859 -119.690284 204 2154ft 0kts
01-Aug-20 14:04 34.942859 -119.690284 204 2154ft 0kts
01-Aug-20 14:05 34.942859 -119.690284 204 2154ft 0kts
01-Aug-20 14:06 34.942859 -119.690284 204 2154ft 0kts
01-Aug-20 14:07 34.942859 -119.690284 204 2154ft 0kts
01-Aug-20 14:08 34.942859 -119.690284 204 2154ft 0kts
01-Aug-20 14:09 34.942859 -119.690284 204 2154ft 0kts
01-Aug-20 14:10 34.942859 -119.690284 204 2154ft 0kts
01-Aug-20 14:11 34.942859 -119.690284 204 2154ft 0kts
01-Aug-20 14:12 34.942859 -119.690284 204 2154ft 0kts
01-Aug-20 14:13 34.942859 -119.690284 204 2154ft 0kts
01-Aug-20 14:14 34.942859 -119.690284 204 2154ft 0kts
01-Aug-20 14:15 34.942859 -119.690284 204 2154ft 0kts
01-Aug-20 14:16 34.942859 -119.690284 204 2154ft 0kts
01-Aug-20 14:17 34.942858 -119.690284 206 2154ft 0kts
01-Aug-20 14:18 34.942628 -119.690034 98 2155ft 3kts
01-Aug-20 14:19 34.943128 -119.690097 293 2154ft 0kts
01-Aug-20 14:20 34.943369 -119.690568 310 2152ft 0kts
01-Aug-20 14:21 34.943309 -119.690933 223 2152ft 0kts
01-Aug-20 14:22 34.943309 -119.690933 223 2152ft 0kts
01-Aug-20 14:23 34.943309 -119.690933 223 2152ft 0kts
01-Aug-20 14:24 34.943309 -119.690933 223 2152ft 0kts
01-Aug-20 14:25 34.942737 -119.690080 277 2155ft 4kts
01-Aug-20 14:26 34.942836 -119.690879 283 2153ft 0kts
01-Aug-20 14:27 34.942836 -119.690879 283 2153ft 0kts
01-Aug-20 14:28 34.942836 -119.690879 283 2153ft 0kts
01-Aug-20 14:29 34.942836 -119.690879 283 2153ft 0kts
01-Aug-20 14:30 34.942836 -119.690879 283 2153ft 0kts
01-Aug-20 14:31 34.942836 -119.690879 283 2153ft 0kts
01-Aug-20 14:32 34.942836 -119.690881 284 2153ft 0kts
01-Aug-20 14:33 34.942836 -119.690881 284 2153ft 0kts
01-Aug-20 14:34 34.942836 -119.690881 284 2153ft 0kts
01-Aug-20 14:35 34.942845 -119.690925 280 2153ft 3kts
01-Aug-20 14:36 34.941290 -119.688985 115 2160ft 55kts
01-Aug-20 14:37 34.931385 -119.665825 141 2911ft 75kts
01-Aug-20 14:38 34.917735 -119.670632 300 3629ft 78kts
01-Aug-20 14:39 34.931558 -119.693487 299 3535ft 84kts
01-Aug-20 14:40 34.947899 -119.715838 302 4071ft 87kts
01-Aug-20 14:41 34.961957 -119.740016 297 4813ft 86kts
01-Aug-20 14:42 34.974144 -119.765673 295 5499ft 87kts
01-Aug-20 14:43 34.986308 -119.791660 298 6140ft 88kts
01-Aug-20 14:44 34.999371 -119.818701 291 6415ft 97kts
01-Aug-20 14:45 35.008408 -119.847962 279 6303ft 86kts
01-Aug-20 14:46 35.014482 -119.876858 285 6484ft 89kts
01-Aug-20 14:47 35.023534 -119.906132 285 6470ft 91kts
01-Aug-20 14:48 35.029251 -119.936359 273 6464ft 90kts
01-Aug-20 14:49 35.030611 -119.967097 258 6456ft 89kts
01-Aug-20 14:50 35.030512 -119.997624 278 6446ft 91kts
01-Aug-20 14:51 35.038504 -120.027042 282 6448ft 90kts
01-Aug-20 14:52 35.040202 -120.057700 268 6455ft 89kts
01-Aug-20 14:53 35.040752 -120.088792 277 6465ft 89kts
01-Aug-20 14:54 35.046624 -120.118351 268 6481ft 88kts
01-Aug-20 14:55 35.044880 -120.148307 276 6488ft 89kts
01-Aug-20 14:56 35.042246 -120.178593 255 6675ft 90kts
01-Aug-20 14:57 35.030601 -120.207030 230 7015ft 97kts
01-Aug-20 14:58 35.024464 -120.241427 302 6516ft 117kts
01-Aug-20 14:59 35.039481 -120.275041 291 6217ft 114kts
01-Aug-20 15:00 35.050504 -120.309519 285 6242ft 104kts
01-Aug-20 15:01 35.067626 -120.338256 315 5622ft 106kts
01-Aug-20 15:02 35.089209 -120.363169 302 5018ft 105kts
01-Aug-20 15:03 35.100210 -120.395120 288 4188ft 102kts
01-Aug-20 15:04 35.106305 -120.427217 277 3457ft 99kts
01-Aug-20 15:05 35.109119 -120.460506 277 2735ft 98kts
01-Aug-20 15:06 35.104505 -120.493190 258 2068ft 98kts
01-Aug-20 15:07 35.109333 -120.520717 341 1623ft 96kts
01-Aug-20 15:08 35.135672 -120.525117 349 1849ft 100kts
01-Aug-20 15:09 35.162368 -120.531819 345 1836ft 97kts
01-Aug-20 15:10 35.185279 -120.546829 308 1758ft 95kts
01-Aug-20 15:11 35.199293 -120.573273 305 1677ft 82kts
01-Aug-20 15:12 35.211037 -120.594191 305 1071ft 74kts
01-Aug-20 15:13 35.222167 -120.614685 308 609ft 74kts
01-Aug-20 15:14 35.232197 -120.632022 307 273ft 54kts
01-Aug-20 15:15 35.238135 -120.642404 301 213ft 27kts
01-Aug-20 15:16 35.239816 -120.644067 30 213ft 0kts
01-Aug-20 15:17 35.239847 -120.644037 43 213ft 3kts
01-Aug-20 15:18 35.238363 -120.641111 125 213ft 8kts
01-Aug-20 15:19 35.237792 -120.639052 59 213ft 0kts
01-Aug-20 15:20 35.237592 -120.638834 191 213ft 0kts
01-Aug-20 15:21 35.237592 -120.638834 191 213ft 0kts
01-Aug-20 15:22 35.237592 -120.638834 191 213ft 0kts
01-Aug-20 15:23 35.237575 -120.638835 172 213ft 0kts

Navigation Log

Ident Type
Flight plan parsing failed, navigation log unavailable